sensor_id;sensor_type;location;lat;lon;timestamp;pressure;altitude;pressure_sealevel;temperature;humidity
61488;BME280;47351;53.326;-6.298;2023-04-01T00:00:19;99954.86;;;9.61;99.75
61488;BME280;47351;53.326;-6.298;2023-04-01T00:03:17;99959.09;;;9.60;99.55
61488;BME280;47351;53.326;-6.298;2023-04-01T00:06:18;99964.09;;;9.60;99.71
61488;BME280;47351;53.326;-6.298;2023-04-01T00:09:14;99965.17;;;9.61;99.83
61488;BME280;47351;53.326;-6.298;2023-04-01T00:12:11;99966.08;;;9.63;99.84
61488;BME280;47351;53.326;-6.298;2023-04-01T00:15:21;99971.33;;;9.62;99.63
61488;BME280;47351;53.326;-6.298;2023-04-01T00:18:34;99975.34;;;9.61;99.66
61488;BME280;47351;53.326;-6.298;2023-04-01T00:21:36;99973.30;;;9.60;99.64
61488;BME280;47351;53.326;-6.298;2023-04-01T00:24:26;99971.54;;;9.58;99.71
61488;BME280;47351;53.326;-6.298;2023-04-01T00:27:30;99977.82;;;9.57;99.71
61488;BME280;47351;53.326;-6.298;2023-04-01T00:30:23;99980.72;;;9.54;99.62
61488;BME280;47351;53.326;-6.298;2023-04-01T00:33:34;99979.50;;;9.53;99.58
61488;BME280;47351;53.326;-6.298;2023-04-01T00:36:30;99977.95;;;9.49;99.31
61488;BME280;47351;53.326;-6.298;2023-04-01T00:39:40;99980.52;;;9.47;99.25
61488;BME280;47351;53.326;-6.298;2023-04-01T00:42:34;99984.62;;;9.47;99.47
61488;BME280;47351;53.326;-6.298;2023-04-01T00:45:31;99982.69;;;9.46;99.52
61488;BME280;47351;53.326;-6.298;2023-04-01T00:48:35;99982.70;;;9.48;99.79
61488;BME280;47351;53.326;-6.298;2023-04-01T00:51:27;99983.00;;;9.48;99.81
61488;BME280;47351;53.326;-6.298;2023-04-01T00:54:21;99984.74;;;9.48;99.95
61488;BME280;47351;53.326;-6.298;2023-04-01T00:57:14;99986.63;;;9.49;99.85
61488;BME280;47351;53.326;-6.298;2023-04-01T01:00:06;99987.65;;;9.51;99.98
61488;BME280;47351;53.326;-6.298;2023-04-01T01:03:01;99989.25;;;9.51;99.94
61488;BME280;47351;53.326;-6.298;2023-04-01T01:09:33;99986.52;;;9.55;100.00
61488;BME280;47351;53.326;-6.298;2023-04-01T01:12:50;99988.75;;;9.54;99.97
61488;BME280;47351;53.326;-6.298;2023-04-01T01:16:06;99990.98;;;9.53;99.98
61488;BME280;47351;53.326;-6.298;2023-04-01T01:19:07;99990.39;;;9.52;100.00
61488;BME280;47351;53.326;-6.298;2023-04-01T01:22:19;99989.65;;;9.51;99.99
61488;BME280;47351;53.326;-6.298;2023-04-01T01:25:27;99992.02;;;9.50;99.99
61488;BME280;47351;53.326;-6.298;2023-04-01T01:28:44;99993.09;;;9.50;99.96
61488;BME280;47351;53.326;-6.298;2023-04-01T01:31:58;99994.92;;;9.51;99.99
61488;BME280;47351;53.326;-6.298;2023-04-01T01:35:16;99996.33;;;9.52;100.00
61488;BME280;47351;53.326;-6.298;2023-04-01T01:38:28;100000.50;;;9.51;100.00
61488;BME280;47351;53.326;-6.298;2023-04-01T01:41:21;99999.05;;;9.50;99.98
61488;BME280;47351;53.326;-6.298;2023-04-01T01:44:27;99999.27;;;9.46;99.93
61488;BME280;47351;53.326;-6.298;2023-04-01T01:47:18;100000.34;;;9.43;99.96
61488;BME280;47351;53.326;-6.298;2023-04-01T01:50:30;100000.45;;;9.39;99.85
61488;BME280;47351;53.326;-6.298;2023-04-01T01:53:33;100003.16;;;9.35;99.82
61488;BME280;47351;53.326;-6.298;2023-04-01T01:56:37;100001.70;;;9.32;99.79
61488;BME280;47351;53.326;-6.298;2023-04-01T01:59:48;100001.33;;;9.29;99.82
61488;BME280;47351;53.326;-6.298;2023-04-01T02:02:48;100000.92;;;9.27;99.93
61488;BME280;47351;53.326;-6.298;2023-04-01T02:06:00;100005.54;;;9.28;99.95
61488;BME280;47351;53.326;-6.298;2023-04-01T02:09:04;100007.14;;;9.28;100.00
61488;BME280;47351;53.326;-6.298;2023-04-01T02:12:16;100011.58;;;9.31;100.00
61488;BME280;47351;53.326;-6.298;2023-04-01T02:15:26;100011.52;;;9.34;100.00
61488;BME280;47351;53.326;-6.298;2023-04-01T02:18:39;100014.02;;;9.34;100.00
61488;BME280;47351;53.326;-6.298;2023-04-01T02:21:53;100019.39;;;9.33;100.00
61488;BME280;47351;53.326;-6.298;2023-04-01T02:25:01;100026.66;;;9.35;100.00
61488;BME280;47351;53.326;-6.298;2023-04-01T02:28:13;100032.34;;;9.35;100.00
61488;BME280;47351;53.326;-6.298;2023-04-01T02:31:17;100036.58;;;9.34;100.00
61488;BME280;47351;53.326;-6.298;2023-04-01T02:34:23;100035.08;;;9.35;100.00
61488;BME280;47351;53.326;-6.298;2023-04-01T02:37:29;100040.09;;;9.36;100.00
61488;BME280;47351;53.326;-6.298;2023-04-01T02:40:43;100042.56;;;9.36;100.00
61488;BME280;47351;53.326;-6.298;2023-04-01T02:43:46;100038.85;;;9.36;100.00
61488;BME280;47351;53.326;-6.298;2023-04-01T02:46:57;100045.03;;;9.35;100.00
61488;BME280;47351;53.326;-6.298;2023-04-01T02:50:08;100042.85;;;9.34;100.00
61488;BME280;47351;53.326;-6.298;2023-04-01T02:53:20;100048.86;;;9.30;100.00
61488;BME280;47351;53.326;-6.298;2023-04-01T02:56:13;100050.66;;;9.28;100.00
61488;BME280;47351;53.326;-6.298;2023-04-01T02:59:23;100052.88;;;9.30;100.00
61488;BME280;47351;53.326;-6.298;2023-04-01T03:02:33;100054.38;;;9.31;100.00
61488;BME280;47351;53.326;-6.298;2023-04-01T03:05:39;100057.16;;;9.30;100.00
61488;BME280;47351;53.326;-6.298;2023-04-01T03:08:29;100057.29;;;9.28;100.00
61488;BME280;47351;53.326;-6.298;2023-04-01T03:11:39;100060.98;;;9.27;100.00
61488;BME280;47351;53.326;-6.298;2023-04-01T03:14:50;100061.88;;;9.25;100.00
61488;BME280;47351;53.326;-6.298;2023-04-01T03:17:54;100064.33;;;9.24;100.00
61488;BME280;47351;53.326;-6.298;2023-04-01T03:20:56;100069.19;;;9.22;100.00
61488;BME280;47351;53.326;-6.298;2023-04-01T03:24:01;100071.86;;;9.19;100.00
61488;BME280;47351;53.326;-6.298;2023-04-01T03:26:56;100070.69;;;9.16;100.00
61488;BME280;47351;53.326;-6.298;2023-04-01T03:29:49;100071.30;;;9.14;100.00
61488;BME280;47351;53.326;-6.298;2023-04-01T03:32:52;100073.02;;;9.11;100.00
61488;BME280;47351;53.326;-6.298;2023-04-01T03:35:57;100078.95;;;9.12;100.00
61488;BME280;47351;53.326;-6.298;2023-04-01T03:39:08;100084.44;;;9.14;100.00
61488;BME280;47351;53.326;-6.298;2023-04-01T03:42:11;100086.58;;;9.16;100.00
61488;BME280;47351;53.326;-6.298;2023-04-01T03:45:02;100092.05;;;9.18;100.00
61488;BME280;47351;53.326;-6.298;2023-04-01T03:47:52;100094.49;;;9.20;100.00
61488;BME280;47351;53.326;-6.298;2023-04-01T03:50:57;100095.73;;;9.22;100.00
61488;BME280;47351;53.326;-6.298;2023-04-01T03:54:02;100099.91;;;9.21;100.00
61488;BME280;47351;53.326;-6.298;2023-04-01T03:56:53;100105.55;;;9.21;100.00
61488;BME280;47351;53.326;-6.298;2023-04-01T03:59:44;100102.11;;;9.22;100.00
61488;BME280;47351;53.326;-6.298;2023-04-01T04:02:54;100108.22;;;9.23;100.00
61488;BME280;47351;53.326;-6.298;2023-04-01T04:05:57;100108.42;;;9.23;100.00
61488;BME280;47351;53.326;-6.298;2023-04-01T04:08:47;100112.33;;;9.23;100.00
61488;BME280;47351;53.326;-6.298;2023-04-01T04:11:37;100116.20;;;9.23;100.00
61488;BME280;47351;53.326;-6.298;2023-04-01T04:14:47;100119.98;;;9.25;100.00
61488;BME280;47351;53.326;-6.298;2023-04-01T04:17:57;100121.84;;;9.24;100.00
61488;BME280;47351;53.326;-6.298;2023-04-01T04:20:48;100121.61;;;9.25;100.00
61488;BME280;47351;53.326;-6.298;2023-04-01T04:24:00;100123.77;;;9.23;100.00
61488;BME280;47351;53.326;-6.298;2023-04-01T04:27:11;100126.59;;;9.21;100.00
61488;BME280;47351;53.326;-6.298;2023-04-01T04:30:36;100127.97;;;9.17;100.00
61488;BME280;47351;53.326;-6.298;2023-04-01T04:33:39;100130.63;;;9.12;100.00
61488;BME280;47351;53.326;-6.298;2023-04-01T04:36:49;100135.88;;;9.08;100.00
61488;BME280;47351;53.326;-6.298;2023-04-01T04:40:00;100140.41;;;9.05;100.00
61488;BME280;47351;53.326;-6.298;2023-04-01T04:43:03;100140.81;;;9.03;100.00
61488;BME280;47351;53.326;-6.298;2023-04-01T04:45:54;100145.92;;;9.02;100.00
61488;BME280;47351;53.326;-6.298;2023-04-01T04:49:04;100153.50;;;9.03;100.00
61488;BME280;47351;53.326;-6.298;2023-04-01T04:51:54;100154.02;;;9.03;100.00
61488;BME280;47351;53.326;-6.298;2023-04-01T04:55:05;100157.98;;;9.03;100.00
61488;BME280;47351;53.326;-6.298;2023-04-01T04:57:57;100160.01;;;9.03;100.00
61488;BME280;47351;53.326;-6.298;2023-04-01T05:00:47;100165.68;;;9.03;100.00
61488;BME280;47351;53.326;-6.298;2023-04-01T05:04:01;100170.00;;;9.05;100.00
61488;BME280;47351;53.326;-6.298;2023-04-01T05:07:11;100172.33;;;9.06;100.00
61488;BME280;47351;53.326;-6.298;2023-04-01T05:10:15;100176.48;;;9.06;100.00
61488;BME280;47351;53.326;-6.298;2023-04-01T05:13:25;100178.52;;;9.05;100.00
61488;BME280;47351;53.326;-6.298;2023-04-01T05:16:36;100181.50;;;9.04;100.00
61488;BME280;47351;53.326;-6.298;2023-04-01T05:19:46;100185.34;;;9.04;100.00
61488;BME280;47351;53.326;-6.298;2023-04-01T05:22:36;100187.17;;;9.04;100.00
61488;BME280;47351;53.326;-6.298;2023-04-01T05:25:41;100193.81;;;9.04;100.00
61488;BME280;47351;53.326;-6.298;2023-04-01T05:28:41;100196.77;;;9.03;100.00
61488;BME280;47351;53.326;-6.298;2023-04-01T05:31:52;100201.80;;;9.02;100.00
61488;BME280;47351;53.326;-6.298;2023-04-01T05:34:56;100205.03;;;9.02;100.00
61488;BME280;47351;53.326;-6.298;2023-04-01T05:37:52;100211.46;;;9.03;100.00
61488;BME280;47351;53.326;-6.298;2023-04-01T05:40:59;100217.45;;;9.05;100.00
61488;BME280;47351;53.326;-6.298;2023-04-01T05:44:10;100223.33;;;9.06;100.00
61488;BME280;47351;53.326;-6.298;2023-04-01T05:47:21;100227.04;;;9.03;100.00
61488;BME280;47351;53.326;-6.298;2023-04-01T05:50:32;100230.55;;;8.99;100.00
61488;BME280;47351;53.326;-6.298;2023-04-01T05:53:42;100240.13;;;8.95;100.00
61488;BME280;47351;53.326;-6.298;2023-04-01T05:56:40;100243.95;;;8.91;100.00
61488;BME280;47351;53.326;-6.298;2023-04-01T05:59:51;100247.41;;;8.88;100.00
61488;BME280;47351;53.326;-6.298;2023-04-01T06:02:51;100249.91;;;8.88;100.00
61488;BME280;47351;53.326;-6.298;2023-04-01T06:05:51;100256.11;;;8.88;100.00
61488;BME280;47351;53.326;-6.298;2023-04-01T06:09:07;100260.20;;;8.90;100.00
61488;BME280;47351;53.326;-6.298;2023-04-01T06:12:24;100264.33;;;8.93;100.00
61488;BME280;47351;53.326;-6.298;2023-04-01T06:15:38;100268.15;;;8.97;100.00
61488;BME280;47351;53.326;-6.298;2023-04-01T06:18:41;100274.08;;;9.02;100.00
61488;BME280;47351;53.326;-6.298;2023-04-01T06:21:41;100278.91;;;9.05;100.00
61488;BME280;47351;53.326;-6.298;2023-04-01T06:24:45;100280.16;;;9.07;100.00
61488;BME280;47351;53.326;-6.298;2023-04-01T06:27:54;100286.98;;;9.12;100.00
61488;BME280;47351;53.326;-6.298;2023-04-01T06:30:55;100295.59;;;9.16;100.00
61488;BME280;47351;53.326;-6.298;2023-04-01T06:34:00;100298.34;;;9.20;100.00
61488;BME280;47351;53.326;-6.298;2023-04-01T06:40:28;100304.20;;;9.29;100.00
61488;BME280;47351;53.326;-6.298;2023-04-01T06:43:32;100307.46;;;9.28;100.00
61488;BME280;47351;53.326;-6.298;2023-04-01T06:46:50;100316.64;;;9.26;100.00
61488;BME280;47351;53.326;-6.298;2023-04-01T06:50:19;100330.98;;;9.22;100.00
61488;BME280;47351;53.326;-6.298;2023-04-01T06:53:42;100342.89;;;9.22;100.00
61488;BME280;47351;53.326;-6.298;2023-04-01T06:56:54;100354.05;;;9.22;100.00
61488;BME280;47351;53.326;-6.298;2023-04-01T06:59:55;100359.79;;;9.23;100.00
61488;BME280;47351;53.326;-6.298;2023-04-01T07:03:10;100367.20;;;9.22;100.00
61488;BME280;47351;53.326;-6.298;2023-04-01T07:06:23;100374.77;;;9.22;100.00
61488;BME280;47351;53.326;-6.298;2023-04-01T07:09:35;100381.31;;;9.20;100.00
61488;BME280;47351;53.326;-6.298;2023-04-01T07:13:05;100393.54;;;9.23;100.00
61488;BME280;47351;53.326;-6.298;2023-04-01T07:16:15;100402.00;;;9.25;100.00
61488;BME280;47351;53.326;-6.298;2023-04-01T07:19:16;100408.35;;;9.26;100.00
61488;BME280;47351;53.326;-6.298;2023-04-01T07:22:24;100412.80;;;9.31;100.00
61488;BME280;47351;53.326;-6.298;2023-04-01T07:25:47;100417.91;;;9.37;100.00
61488;BME280;47351;53.326;-6.298;2023-04-01T07:29:00;100422.71;;;9.41;100.00
61488;BME280;47351;53.326;-6.298;2023-04-01T07:35:23;100440.29;;;9.45;100.00
61488;BME280;47351;53.326;-6.298;2023-04-01T07:38:38;100446.67;;;9.47;100.00
61488;BME280;47351;53.326;-6.298;2023-04-01T07:41:45;100455.52;;;9.45;100.00
61488;BME280;47351;53.326;-6.298;2023-04-01T07:44:41;100463.45;;;9.45;100.00
61488;BME280;47351;53.326;-6.298;2023-04-01T07:47:52;100467.63;;;9.44;100.00
61488;BME280;47351;53.326;-6.298;2023-04-01T07:50:55;100473.34;;;9.42;99.95
61488;BME280;47351;53.326;-6.298;2023-04-01T07:53:54;100482.45;;;9.45;100.00
61488;BME280;47351;53.326;-6.298;2023-04-01T07:57:01;100489.64;;;9.51;100.00
61488;BME280;47351;53.326;-6.298;2023-04-01T08:00:23;100491.57;;;9.59;100.00
61488;BME280;47351;53.326;-6.298;2023-04-01T08:03:33;100499.08;;;9.58;99.98
61488;BME280;47351;53.326;-6.298;2023-04-01T08:06:36;100506.67;;;9.56;99.97
61488;BME280;47351;53.326;-6.298;2023-04-01T08:09:48;100515.27;;;9.58;100.00
61488;BME280;47351;53.326;-6.298;2023-04-01T08:13:02;100524.29;;;9.66;100.00
61488;BME280;47351;53.326;-6.298;2023-04-01T08:16:32;100531.77;;;9.68;100.00
61488;BME280;47351;53.326;-6.298;2023-04-01T08:19:29;100537.59;;;9.70;100.00
61488;BME280;47351;53.326;-6.298;2023-04-01T08:22:21;100539.97;;;9.77;100.00
61488;BME280;47351;53.326;-6.298;2023-04-01T08:25:33;100547.36;;;9.83;100.00
61488;BME280;47351;53.326;-6.298;2023-04-01T08:28:27;100550.52;;;9.85;100.00
61488;BME280;47351;53.326;-6.298;2023-04-01T08:31:30;100562.32;;;9.85;99.86
61488;BME280;47351;53.326;-6.298;2023-04-01T08:34:25;100569.15;;;9.83;99.43
61488;BME280;47351;53.326;-6.298;2023-04-01T08:37:19;100576.04;;;9.82;99.02
61488;BME280;47351;53.326;-6.298;2023-04-01T08:40:20;100584.27;;;9.83;98.82
61488;BME280;47351;53.326;-6.298;2023-04-01T08:43:22;100585.30;;;9.89;98.51
61488;BME280;47351;53.326;-6.298;2023-04-01T08:53:29;100605.98;;;9.94;98.01
61488;BME280;47351;53.326;-6.298;2023-04-01T08:56:25;100610.16;;;9.96;98.18
61488;BME280;47351;53.326;-6.298;2023-04-01T08:59:33;100612.55;;;10.04;98.21
61488;BME280;47351;53.326;-6.298;2023-04-01T09:06:36;100627.36;;;10.32;98.85
61488;BME280;47351;53.326;-6.298;2023-04-01T09:09:44;100634.95;;;10.50;98.77
61488;BME280;47351;53.326;-6.298;2023-04-01T09:12:52;100641.32;;;10.80;98.31
61488;BME280;47351;53.326;-6.298;2023-04-01T09:16:02;100641.77;;;10.94;97.93
61488;BME280;47351;53.326;-6.298;2023-04-01T09:19:07;100650.02;;;11.06;98.61
61488;BME280;47351;53.326;-6.298;2023-04-01T09:25:29;100660.52;;;11.11;97.57
61488;BME280;47351;53.326;-6.298;2023-04-01T09:28:37;100669.98;;;11.08;97.24
61488;BME280;47351;53.326;-6.298;2023-04-01T09:35:22;100677.19;;;11.01;96.64
61488;BME280;47351;53.326;-6.298;2023-04-01T09:38:20;100680.15;;;10.95;95.65
61488;BME280;47351;53.326;-6.298;2023-04-01T09:41:32;100683.94;;;10.96;95.31
61488;BME280;47351;53.326;-6.298;2023-04-01T09:44:32;100688.47;;;11.08;95.12
61488;BME280;47351;53.326;-6.298;2023-04-01T09:47:39;100688.87;;;11.19;94.25
61488;BME280;47351;53.326;-6.298;2023-04-01T09:50:38;100695.53;;;11.28;93.96
61488;BME280;47351;53.326;-6.298;2023-04-01T09:53:45;100697.56;;;11.49;94.27
61488;BME280;47351;53.326;-6.298;2023-04-01T09:56:56;100695.82;;;11.84;93.75
61488;BME280;47351;53.326;-6.298;2023-04-01T10:12:53;100719.13;;;12.47;91.41
61488;BME280;47351;53.326;-6.298;2023-04-01T10:16:10;100725.14;;;12.57;91.17
61488;BME280;47351;53.326;-6.298;2023-04-01T10:19:27;100734.05;;;12.67;90.10
61488;BME280;47351;53.326;-6.298;2023-04-01T10:22:27;100736.19;;;12.72;89.84
61488;BME280;47351;53.326;-6.298;2023-04-01T10:25:26;100741.86;;;12.98;89.24
61488;BME280;47351;53.326;-6.298;2023-04-01T10:28:29;100747.88;;;13.37;87.43
61488;BME280;47351;53.326;-6.298;2023-04-01T10:38:22;100766.95;;;13.29;86.90
61488;BME280;47351;53.326;-6.298;2023-04-01T10:51:16;100785.67;;;14.35;83.67
61488;BME280;47351;53.326;-6.298;2023-04-01T10:54:35;100784.48;;;14.59;82.53
61488;BME280;47351;53.326;-6.298;2023-04-01T10:57:58;100793.02;;;14.63;81.60
61488;BME280;47351;53.326;-6.298;2023-04-01T11:01:24;100802.50;;;14.44;81.04
61488;BME280;47351;53.326;-6.298;2023-04-01T11:04:43;100807.52;;;14.08;81.42
61488;BME280;47351;53.326;-6.298;2023-04-01T11:08:10;100810.52;;;14.16;81.49
61488;BME280;47351;53.326;-6.298;2023-04-01T11:18:04;100831.20;;;14.62;80.77
61488;BME280;47351;53.326;-6.298;2023-04-01T11:21:20;100834.39;;;14.82;79.31
61488;BME280;47351;53.326;-6.298;2023-04-01T11:24:23;100837.27;;;15.26;78.43
61488;BME280;47351;53.326;-6.298;2023-04-01T11:27:47;100841.70;;;15.17;78.30
61488;BME280;47351;53.326;-6.298;2023-04-01T11:30:47;100846.37;;;15.09;78.13
61488;BME280;47351;53.326;-6.298;2023-04-01T11:33:42;100853.29;;;15.81;76.86
61488;BME280;47351;53.326;-6.298;2023-04-01T11:36:37;100859.42;;;15.93;74.80
61488;BME280;47351;53.326;-6.298;2023-04-01T11:39:34;100861.00;;;16.35;73.41
61488;BME280;47351;53.326;-6.298;2023-04-01T11:43:04;100863.73;;;16.75;72.81
61488;BME280;47351;53.326;-6.298;2023-04-01T11:46:45;100874.78;;;16.37;72.82
61488;BME280;47351;53.326;-6.298;2023-04-01T11:49:44;100880.80;;;16.38;73.51
61488;BME280;47351;53.326;-6.298;2023-04-01T11:52:47;100878.01;;;17.24;71.23
61488;BME280;47351;53.326;-6.298;2023-04-01T11:55:53;100880.34;;;17.30;69.44
61488;BME280;47351;53.326;-6.298;2023-04-01T11:58:53;100883.88;;;16.95;69.31
61488;BME280;47351;53.326;-6.298;2023-04-01T12:01:53;100886.22;;;17.33;69.19
61488;BME280;47351;53.326;-6.298;2023-04-01T12:04:47;100889.80;;;17.85;69.09
61488;BME280;47351;53.326;-6.298;2023-04-01T12:07:53;100887.29;;;19.61;66.96
61488;BME280;47351;53.326;-6.298;2023-04-01T12:10:46;100887.89;;;20.70;63.46
61488;BME280;47351;53.326;-6.298;2023-04-01T12:13:41;100890.77;;;20.67;62.30
61488;BME280;47351;53.326;-6.298;2023-04-01T12:16:40;100896.55;;;20.53;62.34
61488;BME280;47351;53.326;-6.298;2023-04-01T12:19:35;100905.19;;;19.90;61.83
61488;BME280;47351;53.326;-6.298;2023-04-01T12:22:34;100912.34;;;19.01;62.47
61488;BME280;47351;53.326;-6.298;2023-04-01T12:25:33;100917.20;;;18.34;64.12
61488;BME280;47351;53.326;-6.298;2023-04-01T12:28:32;100926.62;;;18.30;63.76
61488;BME280;47351;53.326;-6.298;2023-04-01T12:31:29;100930.99;;;18.64;62.82
61488;BME280;47351;53.326;-6.298;2023-04-01T12:34:27;100928.52;;;19.34;61.13
61488;BME280;47351;53.326;-6.298;2023-04-01T12:37:24;100932.44;;;20.27;58.80
61488;BME280;47351;53.326;-6.298;2023-04-01T12:40:26;100933.39;;;20.46;58.89
61488;BME280;47351;53.326;-6.298;2023-04-01T12:43:28;100932.80;;;21.71;58.54
61488;BME280;47351;53.326;-6.298;2023-04-01T12:46:25;100931.30;;;22.68;56.24
61488;BME280;47351;53.326;-6.298;2023-04-01T12:49:27;100938.94;;;22.09;55.99
61488;BME280;47351;53.326;-6.298;2023-04-01T12:52:22;100946.71;;;21.19;55.45
61488;BME280;47351;53.326;-6.298;2023-04-01T12:58:22;100954.93;;;19.82;57.50
61488;BME280;47351;53.326;-6.298;2023-04-01T13:04:39;100971.98;;;18.99;59.08
61488;BME280;47351;53.326;-6.298;2023-04-01T13:07:45;100973.73;;;18.54;59.65
61488;BME280;47351;53.326;-6.298;2023-04-01T13:10:41;100978.86;;;17.97;59.40
61488;BME280;47351;53.326;-6.298;2023-04-01T13:16:48;100992.43;;;17.31;61.41
61488;BME280;47351;53.326;-6.298;2023-04-01T13:19:43;100991.54;;;17.71;60.87
61488;BME280;47351;53.326;-6.298;2023-04-01T13:22:55;100997.23;;;17.52;61.30
61488;BME280;47351;53.326;-6.298;2023-04-01T13:25:52;101002.10;;;17.27;62.42
61488;BME280;47351;53.326;-6.298;2023-04-01T13:29:00;101012.65;;;16.93;62.76
61488;BME280;47351;53.326;-6.298;2023-04-01T13:32:02;101015.96;;;16.57;63.52
61488;BME280;47351;53.326;-6.298;2023-04-01T13:34:59;101019.48;;;16.50;63.97
61488;BME280;47351;53.326;-6.298;2023-04-01T13:37:54;101025.45;;;16.51;63.96
61488;BME280;47351;53.326;-6.298;2023-04-01T13:40:51;101026.36;;;16.61;62.80
61488;BME280;47351;53.326;-6.298;2023-04-01T13:43:51;101028.66;;;16.83;62.50
61488;BME280;47351;53.326;-6.298;2023-04-01T13:46:58;101032.00;;;16.83;62.56
61488;BME280;47351;53.326;-6.298;2023-04-01T13:50:03;101040.00;;;16.58;63.30
61488;BME280;47351;53.326;-6.298;2023-04-01T13:53:04;101046.09;;;16.18;64.15
61488;BME280;47351;53.326;-6.298;2023-04-01T13:56:03;101056.05;;;15.80;64.95
61488;BME280;47351;53.326;-6.298;2023-04-01T13:59:07;101063.71;;;15.55;65.49
61488;BME280;47351;53.326;-6.298;2023-04-01T14:02:02;101068.35;;;15.32;66.09
61488;BME280;47351;53.326;-6.298;2023-04-01T14:08:23;101075.73;;;14.74;67.32
61488;BME280;47351;53.326;-6.298;2023-04-01T14:11:19;101080.87;;;14.43;67.64
61488;BME280;47351;53.326;-6.298;2023-04-01T14:14:17;101092.53;;;14.12;68.41
61488;BME280;47351;53.326;-6.298;2023-04-01T14:17:23;101098.85;;;13.80;69.37
61488;BME280;47351;53.326;-6.298;2023-04-01T14:20:37;101104.98;;;13.59;71.02
61488;BME280;47351;53.326;-6.298;2023-04-01T14:23:39;101106.93;;;13.63;72.20
61488;BME280;47351;53.326;-6.298;2023-04-01T14:29:45;101111.99;;;13.93;73.28
61488;BME280;47351;53.326;-6.298;2023-04-01T14:32:44;101121.23;;;13.95;73.37
61488;BME280;47351;53.326;-6.298;2023-04-01T14:35:41;101132.19;;;13.77;73.63
61488;BME280;47351;53.326;-6.298;2023-04-01T14:38:49;101138.14;;;13.49;74.26
61488;BME280;47351;53.326;-6.298;2023-04-01T14:41:45;101146.80;;;13.21;74.85
61488;BME280;47351;53.326;-6.298;2023-04-01T14:44:43;101146.65;;;13.03;75.58
61488;BME280;47351;53.326;-6.298;2023-04-01T14:47:47;101150.52;;;12.98;76.70
61488;BME280;47351;53.326;-6.298;2023-04-01T14:50:42;101158.94;;;12.95;77.81
61488;BME280;47351;53.326;-6.298;2023-04-01T14:53:33;101164.35;;;12.84;78.29
61488;BME280;47351;53.326;-6.298;2023-04-01T14:56:36;101171.48;;;12.66;78.63
61488;BME280;47351;53.326;-6.298;2023-04-01T14:59:28;101175.19;;;12.53;79.13
61488;BME280;47351;53.326;-6.298;2023-04-01T15:02:35;101178.29;;;12.56;79.46
61488;BME280;47351;53.326;-6.298;2023-04-01T15:05:36;101179.33;;;12.68;79.84
61488;BME280;47351;53.326;-6.298;2023-04-01T15:08:32;101188.17;;;12.71;80.17
61488;BME280;47351;53.326;-6.298;2023-04-01T15:11:27;101194.40;;;12.59;80.09
61488;BME280;47351;53.326;-6.298;2023-04-01T15:14:25;101198.22;;;12.43;79.99
61488;BME280;47351;53.326;-6.298;2023-04-01T15:17:27;101193.57;;;12.31;80.10
61488;BME280;47351;53.326;-6.298;2023-04-01T15:20:32;101214.90;;;12.15;80.90
61488;BME280;47351;53.326;-6.298;2023-04-01T15:23:34;101216.39;;;12.04;81.86
61488;BME280;47351;53.326;-6.298;2023-04-01T15:26:33;101228.27;;;11.96;82.48
61488;BME280;47351;53.326;-6.298;2023-04-01T15:29:40;101234.08;;;11.84;82.83
61488;BME280;47351;53.326;-6.298;2023-04-01T15:32:42;101235.42;;;11.72;83.03
61488;BME280;47351;53.326;-6.298;2023-04-01T15:35:41;101237.58;;;11.56;82.70
61488;BME280;47351;53.326;-6.298;2023-04-01T15:38:38;101246.98;;;11.42;83.15
61488;BME280;47351;53.326;-6.298;2023-04-01T15:41:38;101259.99;;;11.26;83.61
61488;BME280;47351;53.326;-6.298;2023-04-01T15:44:42;101263.64;;;11.14;84.13
61488;BME280;47351;53.326;-6.298;2023-04-01T15:47:39;101267.16;;;11.07;84.41
61488;BME280;47351;53.326;-6.298;2023-04-01T15:50:54;101276.02;;;11.04;85.17
61488;BME280;47351;53.326;-6.298;2023-04-01T15:54:08;101276.52;;;11.05;85.27
61488;BME280;47351;53.326;-6.298;2023-04-01T15:57:10;101277.52;;;11.11;85.49
61488;BME280;47351;53.326;-6.298;2023-04-01T16:00:22;101278.17;;;11.12;85.76
61488;BME280;47351;53.326;-6.298;2023-04-01T16:03:19;101284.45;;;11.00;86.32
61488;BME280;47351;53.326;-6.298;2023-04-01T16:06:21;101294.31;;;10.87;86.94
61488;BME280;47351;53.326;-6.298;2023-04-01T16:09:31;101306.29;;;10.79;87.80
61488;BME280;47351;53.326;-6.298;2023-04-01T16:12:31;101315.09;;;10.77;88.15
61488;BME280;47351;53.326;-6.298;2023-04-01T16:15:32;101323.46;;;10.77;88.38
61488;BME280;47351;53.326;-6.298;2023-04-01T16:18:48;101325.17;;;10.80;88.55
61488;BME280;47351;53.326;-6.298;2023-04-01T16:21:45;101323.73;;;10.87;88.64
61488;BME280;47351;53.326;-6.298;2023-04-01T16:24:40;101323.52;;;10.93;88.37
61488;BME280;47351;53.326;-6.298;2023-04-01T16:27:40;101330.21;;;10.98;88.60
61488;BME280;47351;53.326;-6.298;2023-04-01T16:30:36;101339.55;;;11.00;88.87
61488;BME280;47351;53.326;-6.298;2023-04-01T16:33:31;101355.45;;;10.94;88.59
61488;BME280;47351;53.326;-6.298;2023-04-01T16:36:32;101360.65;;;10.88;88.12
61488;BME280;47351;53.326;-6.298;2023-04-01T16:39:46;101368.24;;;10.85;88.35
61488;BME280;47351;53.326;-6.298;2023-04-01T16:42:46;101371.61;;;10.87;88.35
61488;BME280;47351;53.326;-6.298;2023-04-01T16:45:45;101376.32;;;10.85;88.19
61488;BME280;47351;53.326;-6.298;2023-04-01T16:48:55;101377.60;;;10.79;88.26
61488;BME280;47351;53.326;-6.298;2023-04-01T16:51:52;101388.40;;;10.70;87.94
61488;BME280;47351;53.326;-6.298;2023-04-01T16:54:53;101389.04;;;10.63;87.79
61488;BME280;47351;53.326;-6.298;2023-04-01T16:57:55;101391.81;;;10.62;88.06
61488;BME280;47351;53.326;-6.298;2023-04-01T17:00:53;101397.44;;;10.63;88.22
61488;BME280;47351;53.326;-6.298;2023-04-01T17:03:49;101405.64;;;10.59;88.19
61488;BME280;47351;53.326;-6.298;2023-04-01T17:06:55;101418.55;;;10.49;88.18
61488;BME280;47351;53.326;-6.298;2023-04-01T17:09:54;101425.09;;;10.38;88.43
61488;BME280;47351;53.326;-6.298;2023-04-01T17:13:02;101429.11;;;10.29;88.72